Time;durP1;ratioP1;P1;durP2;ratioP2;P2;SDS_P1;SDS_P2;PMS_P1;PMS_P2;Temp;Humidity;BMP_temperature;BMP_pressure;BME280_temperature;BME280_humidity;BME280_pressure;Samples;Min_cycle;Max_cycle;Signal;HPM_P1;HPM_P2
2023/01/04 00:01:20;;;;;;;0.10;0.10;;;1.70;99.90;;;;;;5098411;28;20423;-79
2023/01/04 00:03:47;;;;;;;0.40;0.35;;;1.80;99.90;;;;;;5075419;28;20423;-79
2023/01/04 00:06:15;;;;;;;0.20;0.20;;;1.90;99.90;;;;;;5083899;28;20593;-79
2023/01/04 00:08:42;;;;;;;0.77;0.38;;;1.90;99.90;;;;;;5085635;28;20443;-78
2023/01/04 00:11:16;;;;;;;0.20;0.20;;;1.90;99.90;;;;;;5077885;28;20986;-79
2023/01/04 00:13:44;;;;;;;0.40;0.40;;;2.00;99.90;;;;;;5077702;28;20498;-79
2023/01/04 00:16:23;;;;;;;0.80;0.40;;;2.00;99.90;;;;;;5086455;28;20430;-79
2023/01/04 00:18:51;;;;;;;0.50;0.50;;;2.00;99.90;;;;;;5090746;27;20466;-79
2023/01/04 00:21:19;;;;;;;0.25;0.25;;;2.00;99.90;;;;;;5086535;28;20931;-79
2023/01/04 00:23:48;;;;;;;0.60;0.60;;;2.20;99.90;;;;;;5081905;28;20916;-79
2023/01/04 00:26:21;;;;;;;0.30;0.30;;;2.30;99.90;;;;;;5075433;28;20427;-79
2023/01/04 00:28:51;;;;;;;0.60;0.30;;;2.50;99.90;;;;;;5082525;28;20439;-79
2023/01/04 00:31:20;;;;;;;0.30;0.30;;;2.50;99.90;;;;;;5072800;28;20427;-79
2023/01/04 00:33:48;;;;;;;1.40;0.20;;;2.60;99.90;;;;;;5076508;28;20424;-79
2023/01/04 00:36:15;;;;;;;0.47;0.47;;;2.60;99.90;;;;;;5085558;28;20487;-79
2023/01/04 00:38:42;;;;;;;1.30;0.50;;;2.60;99.90;;;;;;5084210;28;20457;-79
2023/01/04 00:41:10;;;;;;;0.13;0.13;;;2.60;99.90;;;;;;5077939;28;20427;-79
2023/01/04 00:44:02;;;;;;;0.20;0.20;;;2.60;99.90;;;;;;5094039;28;20940;-78
2023/01/04 00:46:30;;;;;;;1.50;0.30;;;2.40;99.90;;;;;;5085554;28;20453;-79
2023/01/04 00:48:57;;;;;;;0.50;0.50;;;2.20;99.90;;;;;;5091339;28;20426;-78
2023/01/04 00:51:28;;;;;;;0.20;0.20;;;2.10;99.90;;;;;;5073440;28;20431;-79
2023/01/04 00:54:03;;;;;;;0.17;0.17;;;2.10;99.90;;;;;;5077085;28;20431;-79
2023/01/04 00:56:31;;;;;;;1.00;0.52;;;2.00;99.90;;;;;;5080212;28;20433;-79
2023/01/04 00:58:59;;;;;;;0.60;0.20;;;1.90;99.90;;;;;;5075432;28;20430;-79
2023/01/04 01:01:28;;;;;;;0.60;0.40;;;2.00;99.90;;;;;;5094618;28;20421;-78
2023/01/04 01:04:00;;;;;;;0.23;0.23;;;2.00;99.90;;;;;;5090334;28;20429;-78
2023/01/04 01:06:29;;;;;;;0.55;0.55;;;2.00;99.90;;;;;;5081608;28;20429;-78
2023/01/04 01:08:59;;;;;;;0.50;0.40;;;1.90;99.90;;;;;;5077229;28;20932;-78
2023/01/04 01:11:27;;;;;;;0.30;0.30;;;1.90;99.90;;;;;;5086083;28;20478;-77
2023/01/04 01:13:58;;;;;;;0.30;0.30;;;1.90;99.90;;;;;;5075242;28;20431;-78
2023/01/04 01:16:28;;;;;;;0.30;0.22;;;1.90;99.90;;;;;;5087115;28;20436;-78
2023/01/04 01:19:15;;;;;;;0.40;0.40;;;1.90;99.90;;;;;;5081929;28;20409;-77
2023/01/04 01:21:42;;;;;;;0.40;0.40;;;2.00;99.90;;;;;;5083672;28;20429;-77
2023/01/04 01:24:17;;;;;;;0.25;0.25;;;2.10;99.90;;;;;;5086186;28;21025;-77
2023/01/04 01:26:44;;;;;;;0.32;0.32;;;2.20;99.90;;;;;;5074215;28;20463;-78
2023/01/04 01:29:11;;;;;;;0.40;0.40;;;2.30;99.90;;;;;;5073367;28;20775;-78
2023/01/04 01:31:39;;;;;;;0.30;0.30;;;2.50;99.90;;;;;;5074654;28;20423;-78
2023/01/04 01:34:06;;;;;;;0.43;0.43;;;2.60;99.90;;;;;;5086956;28;20867;-78
2023/01/04 01:36:33;;;;;;;0.35;0.35;;;2.60;99.90;;;;;;5085869;28;20434;-78
2023/01/04 01:39:00;;;;;;;0.30;0.30;;;2.70;99.90;;;;;;5073925;28;20434;-78
2023/01/04 01:41:32;;;;;;;0.38;0.38;;;2.70;99.90;;;;;;5079365;28;20499;-78
2023/01/04 01:44:05;;;;;;;0.30;0.30;;;2.70;99.90;;;;;;5078859;28;21028;-78
2023/01/04 01:46:48;;;;;;;0.85;0.40;;;2.70;99.90;;;;;;5089878;28;20458;-78
2023/01/04 01:49:36;;;;;;;0.40;0.40;;;2.70;99.90;;;;;;5083514;28;20475;-78
2023/01/04 01:52:06;;;;;;;0.22;0.22;;;2.80;99.90;;;;;;5084544;28;20434;-78
2023/01/04 01:54:57;;;;;;;0.40;0.40;;;2.90;99.90;;;;;;5074545;28;20542;-78
2023/01/04 01:57:27;;;;;;;0.52;0.52;;;2.90;99.90;;;;;;5078404;28;20430;-78
2023/01/04 01:59:57;;;;;;;1.80;0.60;;;3.00;99.90;;;;;;5080626;28;20992;-78
2023/01/04 02:02:27;;;;;;;0.60;0.45;;;3.00;99.90;;;;;;5071319;28;20506;-78
2023/01/04 02:05:00;;;;;;;2.15;0.38;;;3.10;99.90;;;;;;5073381;28;20521;-78
2023/01/04 02:07:27;;;;;;;0.40;0.40;;;3.10;99.90;;;;;;5088239;28;20429;-78
2023/01/04 02:09:56;;;;;;;0.57;0.57;;;3.00;99.90;;;;;;5078754;28;20522;-78
2023/01/04 02:12:24;;;;;;;0.65;0.65;;;3.10;99.90;;;;;;5078875;28;20438;-78
2023/01/04 02:14:51;;;;;;;1.40;0.90;;;3.20;99.90;;;;;;5077370;28;20425;-78
2023/01/04 02:18:04;;;;;;;1.40;0.77;;;3.20;99.90;;;;;;5083531;28;20914;-78
2023/01/04 02:20:40;;;;;;;0.20;0.20;;;3.30;99.90;;;;;;5064520;28;20435;-79
2023/01/04 02:23:52;;;;;;;0.40;0.40;;;3.40;99.90;;;;;;5060827;28;20583;-79
2023/01/04 02:26:37;;;;;;;0.60;0.60;;;3.40;99.90;;;;;;5065810;28;20506;-79
2023/01/04 02:29:06;;;;;;;0.60;0.40;;;3.50;99.90;;;;;;5062419;28;20796;-79
2023/01/04 02:31:54;;;;;;;1.25;0.95;;;3.50;99.90;;;;;;5062580;28;20442;-79
2023/01/04 02:34:21;;;;;;;0.70;0.70;;;3.60;99.90;;;;;;5066810;28;20459;-79
2023/01/04 02:36:59;;;;;;;0.20;0.20;;;3.60;99.90;;;;;;5068510;28;20435;-79
2023/01/04 02:39:40;;;;;;;0.75;0.75;;;3.60;99.90;;;;;;5056131;28;20862;-79
2023/01/04 02:45:52;;;;;;;0.50;0.43;;;3.70;99.90;;;;;;5062664;28;20485;-79
2023/01/04 02:51:23;;;;;;;0.70;0.40;;;3.90;99.90;;;;;;5062959;28;20437;-79
2023/01/04 02:53:50;;;;;;;0.77;0.77;;;4.00;99.90;;;;;;5072644;28;20432;-79
2023/01/04 02:56:34;;;;;;;0.73;0.68;;;4.00;99.90;;;;;;5094666;28;20441;-79
2023/01/04 02:59:45;;;;;;;0.80;0.80;;;4.00;99.90;;;;;;5080465;28;20795;-79
2023/01/04 03:08:43;;;;;;;0.60;0.50;;;4.10;99.90;;;;;;5088402;28;20851;-79
2023/01/04 03:14:14;;;;;;;1.08;1.05;;;4.10;99.90;;;;;;5084847;28;21182;-80
2023/01/04 03:17:09;;;;;;;1.90;1.10;;;4.10;99.90;;;;;;5083994;28;20459;-79
2023/01/04 03:19:50;;;;;;;0.70;0.70;;;4.10;99.90;;;;;;5078147;28;20425;-79
2023/01/04 03:37:05;;;;;;;1.60;0.88;;;4.30;99.90;;;;;;5086541;28;20772;-79
2023/01/04 03:49:04;;;;;;;0.60;0.57;;;4.40;99.90;;;;;;5085708;28;20461;-79
2023/01/04 03:51:37;;;;;;;0.90;0.90;;;4.40;99.90;;;;;;5101497;28;20498;-79
2023/01/04 03:54:14;;;;;;;1.20;1.00;;;4.50;99.90;;;;;;5077906;28;20463;-78
2023/01/04 03:56:44;;;;;;;1.35;0.75;;;4.40;99.90;;;;;;5075907;28;20485;-80
2023/01/04 03:59:12;;;;;;;0.55;0.47;;;4.50;99.90;;;;;;5079482;28;20423;-79
2023/01/04 04:01:41;;;;;;;2.20;0.60;;;4.50;99.90;;;;;;5073633;28;20432;-79
2023/01/04 04:09:40;;;;;;;0.80;0.60;;;4.50;99.90;;;;;;5080958;28;20925;-75
2023/01/04 04:12:07;;;;;;;0.70;0.63;;;4.40;99.90;;;;;;5080059;28;20429;-75
2023/01/04 04:14:38;;;;;;;1.38;1.05;;;4.40;99.90;;;;;;5082146;28;20474;-75
2023/01/04 04:17:05;;;;;;;0.45;0.45;;;4.40;99.90;;;;;;5089082;28;20900;-74
2023/01/04 04:19:31;;;;;;;0.98;0.88;;;4.40;99.90;;;;;;5081214;28;20427;-74
2023/01/04 04:21:58;;;;;;;0.60;0.60;;;4.40;99.90;;;;;;5086670;28;20446;-74
2023/01/04 04:24:25;;;;;;;2.65;0.70;;;4.40;99.90;;;;;;5089884;28;20506;-74
2023/01/04 04:26:53;;;;;;;1.47;1.37;;;4.40;99.90;;;;;;5081801;28;20818;-74
2023/01/04 04:29:21;;;;;;;1.20;1.10;;;4.40;99.90;;;;;;5081145;28;20594;-75
2023/01/04 04:31:48;;;;;;;0.70;0.35;;;4.40;99.90;;;;;;5085645;28;21131;-75
2023/01/04 04:34:15;;;;;;;0.90;0.60;;;4.40;99.90;;;;;;5087452;28;20430;-75
2023/01/04 04:36:44;;;;;;;0.47;0.47;;;4.40;99.90;;;;;;5087694;28;20434;-77
2023/01/04 04:39:11;;;;;;;1.08;1.08;;;4.50;99.90;;;;;;5081855;28;20499;-77
2023/01/04 04:41:40;;;;;;;0.68;0.68;;;4.50;99.90;;;;;;5085291;28;20430;-76
2023/01/04 04:44:18;;;;;;;3.60;1.05;;;4.50;99.90;;;;;;5091536;28;20469;-75
2023/01/04 04:46:46;;;;;;;0.50;0.50;;;4.50;90.00;;;;;;5089034;28;20459;-75
2023/01/04 04:49:14;;;;;;;1.23;0.43;;;4.50;78.20;;;;;;5086063;28;20925;-77
2023/01/04 04:51:42;;;;;;;0.47;0.47;;;4.50;69.70;;;;;;5084282;28;20431;-76
2023/01/04 04:54:13;;;;;;;0.22;0.22;;;4.50;67.00;;;;;;5085895;28;20896;-76
2023/01/04 04:56:40;;;;;;;0.55;0.55;;;4.50;65.60;;;;;;5075072;28;20442;-76
2023/01/04 04:59:07;;;;;;;0.50;0.50;;;4.50;49.60;;;;;;5086457;28;20429;-77
2023/01/04 05:01:36;;;;;;;0.63;0.63;;;4.50;48.60;;;;;;5082896;28;20919;-77
2023/01/04 05:04:06;;;;;;;0.40;0.38;;;4.50;41.10;;;;;;5081683;28;20442;-76
2023/01/04 05:06:33;;;;;;;0.37;0.37;;;4.50;19.70;;;;;;5082393;28;20914;-77
2023/01/04 05:08:59;;;;;;;2.10;0.80;;;4.60;2.90;;;;;;5085255;28;20940;-79
2023/01/04 05:14:14;;;;;;;0.30;0.30;;;4.60;1.00;;;;;;5079328;28;20434;-77
2023/01/04 05:16:41;;;;;;;0.98;0.52;;;4.60;1.00;;;;;;5083424;28;20785;-77
2023/01/04 05:19:08;;;;;;;1.05;0.35;;;4.60;1.00;;;;;;5081352;28;20422;-76
2023/01/04 05:21:35;;;;;;;0.80;0.52;;;4.60;1.00;;;;;;5078010;28;20427;-77
2023/01/04 05:24:02;;;;;;;0.50;0.25;;;4.60;1.00;;;;;;5070753;28;20506;-77
2023/01/04 05:26:28;;;;;;;0.65;0.65;;;4.70;1.00;;;;;;5082906;28;20441;-76
2023/01/04 05:28:55;;;;;;;0.22;0.22;;;4.70;1.00;;;;;;5091696;28;20430;-75
2023/01/04 05:31:22;;;;;;;0.32;0.32;;;4.70;1.00;;;;;;5084085;28;20427;-77
2023/01/04 05:33:49;;;;;;;0.52;0.52;;;4.70;1.00;;;;;;5073646;28;20505;-77
2023/01/04 05:36:25;;;;;;;0.70;0.70;;;4.70;1.00;;;;;;5086459;28;20515;-78
2023/01/04 05:38:52;;;;;;;0.77;0.77;;;4.70;1.00;;;;;;5093731;28;20431;-77
2023/01/04 05:44:04;;;;;;;0.40;0.40;;;4.70;1.00;;;;;;5089114;28;20424;-76
2023/01/04 05:46:31;;;;;;;0.47;0.47;;;4.70;1.00;;;;;;5088521;28;20487;-76
2023/01/04 05:48:58;;;;;;;0.70;0.40;;;4.60;1.00;;;;;;5084956;28;20452;-77
2023/01/04 05:51:24;;;;;;;0.30;0.30;;;4.60;1.00;;;;;;5086513;28;20454;-75
2023/01/04 05:53:51;;;;;;;0.40;0.40;;;4.60;1.00;;;;;;5089796;28;20510;-77
2023/01/04 05:56:18;;;;;;;1.02;0.95;;;4.60;1.00;;;;;;5087045;28;20438;-78
2023/01/04 05:58:44;;;;;;;0.17;0.17;;;4.60;1.00;;;;;;5072585;28;20431;-76
2023/01/04 06:01:11;;;;;;;0.70;0.70;;;4.60;1.00;;;;;;5089154;28;20519;-75
2023/01/04 06:03:38;;;;;;;0.52;0.52;;;4.60;1.00;;;;;;5084504;28;20438;-77
2023/01/04 06:06:05;;;;;;;0.40;0.20;;;4.60;1.00;;;;;;5087067;28;20483;-76
2023/01/04 06:08:32;;;;;;;1.10;0.70;;;4.60;1.00;;;;;;5090321;28;20937;-73
2023/01/04 06:10:58;;;;;;;0.60;0.60;;;4.60;1.00;;;;;;5082031;28;20456;-73
2023/01/04 06:13:25;;;;;;;0.68;0.68;;;4.60;1.00;;;;;;5092450;28;20434;-72
2023/01/04 06:15:52;;;;;;;1.27;0.95;;;4.60;1.00;;;;;;5079604;28;20516;-72
2023/01/04 06:18:18;;;;;;;1.03;0.90;;;4.60;1.00;;;;;;5082209;28;20505;-72
2023/01/04 06:20:45;;;;;;;2.00;0.90;;;4.60;99.90;;;;;;5089740;28;20440;-72
2023/01/04 06:23:12;;;;;;;0.57;0.57;;;4.60;99.90;;;;;;5080535;28;20425;-72
2023/01/04 06:25:42;;;;;;;0.40;0.40;;;4.60;99.90;;;;;;5085552;28;20455;-72
2023/01/04 06:28:08;;;;;;;0.50;0.50;;;4.50;99.90;;;;;;5077886;28;20417;-72
2023/01/04 06:30:35;;;;;;;0.40;0.40;;;4.50;99.90;;;;;;5081748;28;20781;-73
2023/01/04 06:33:02;;;;;;;0.40;0.40;;;4.50;99.90;;;;;;5085550;28;20937;-72
2023/01/04 06:35:29;;;;;;;1.55;0.63;;;4.50;99.90;;;;;;5069930;28;20423;-73
2023/01/04 06:37:58;;;;;;;0.50;0.50;;;4.50;99.90;;;;;;5071638;28;20439;-72
2023/01/04 06:40:25;;;;;;;1.70;0.80;;;4.50;99.90;;;;;;5091836;28;20421;-72
2023/01/04 06:42:52;;;;;;;0.77;0.77;;;4.50;1.00;;;;;;5088998;28;20440;-72
2023/01/04 06:45:19;;;;;;;1.40;0.70;;;4.50;1.00;;;;;;5083639;28;20427;-72
2023/01/04 06:47:46;;;;;;;0.47;0.47;;;4.40;1.00;;;;;;5074666;28;20455;-72
2023/01/04 06:50:13;;;;;;;2.10;0.60;;;4.40;1.00;;;;;;5076888;28;20427;-72
2023/01/04 06:52:40;;;;;;;0.57;0.32;;;4.50;1.00;;;;;;5085708;28;20563;-72
2023/01/04 06:55:11;;;;;;;1.98;0.57;;;4.50;1.00;;;;;;5092453;28;20515;-73
2023/01/04 06:57:37;;;;;;;0.45;0.45;;;4.50;1.00;;;;;;5080031;28;20436;-73
2023/01/04 07:00:07;;;;;;;0.50;0.45;;;4.50;1.00;;;;;;5079362;28;20428;-72
2023/01/04 07:02:34;;;;;;;0.73;0.73;;;4.50;1.00;;;;;;5074349;28;20423;-73
2023/01/04 07:05:01;;;;;;;0.50;0.50;;;4.50;1.00;;;;;;5071523;28;20423;-72
2023/01/04 07:07:29;;;;;;;1.30;1.20;;;4.60;1.00;;;;;;5081528;28;20870;-73
2023/01/04 07:09:55;;;;;;;1.50;0.35;;;4.60;1.00;;;;;;5085707;28;20940;-72
2023/01/04 07:12:22;;;;;;;1.70;0.70;;;4.60;1.00;;;;;;5078746;28;20559;-73
2023/01/04 07:14:49;;;;;;;0.80;0.28;;;4.70;1.00;;;;;;5092247;28;20463;-73
2023/01/04 07:17:16;;;;;;;0.33;0.33;;;4.70;1.00;;;;;;5086515;28;20426;-72
2023/01/04 07:19:43;;;;;;;0.75;0.75;;;4.70;1.00;;;;;;5088379;28;20874;-72
2023/01/04 07:22:10;;;;;;;0.55;0.40;;;4.80;1.00;;;;;;5086498;28;20508;-73
2023/01/04 07:24:36;;;;;;;0.30;0.30;;;4.90;1.00;;;;;;5082103;28;20943;-72
2023/01/04 07:27:03;;;;;;;1.80;0.60;;;4.90;1.00;;;;;;5079880;28;20521;-72
2023/01/04 07:29:30;;;;;;;0.40;0.40;;;5.00;99.90;;;;;;5075533;28;20429;-73
2023/01/04 07:31:57;;;;;;;1.10;0.70;;;5.00;99.90;;;;;;5075684;28;20422;-73
2023/01/04 07:34:24;;;;;;;1.50;0.50;;;5.10;99.90;;;;;;5087096;28;20424;-73
2023/01/04 07:36:51;;;;;;;0.37;0.37;;;5.10;99.90;;;;;;5077461;28;20537;-73
2023/01/04 07:39:19;;;;;;;1.90;0.35;;;5.20;99.90;;;;;;5073132;28;20455;-73
2023/01/04 07:41:47;;;;;;;0.63;0.63;;;5.20;99.90;;;;;;5082822;28;21001;-73
2023/01/04 07:44:16;;;;;;;0.17;0.17;;;5.30;99.90;;;;;;5080983;28;20445;-72
2023/01/04 07:46:43;;;;;;;0.30;0.30;;;5.40;99.90;;;;;;5079887;28;20522;-73
2023/01/04 07:49:13;;;;;;;0.52;0.30;;;5.40;99.90;;;;;;5085628;28;20517;-72
2023/01/04 07:51:45;;;;;;;1.67;0.45;;;5.40;99.90;;;;;;5081053;28;20840;-74
2023/01/04 07:54:14;;;;;;;2.13;0.28;;;5.50;99.90;;;;;;5077822;28;21013;-72
2023/01/04 07:56:42;;;;;;;0.30;0.30;;;5.50;99.90;;;;;;5084718;28;20863;-72
2023/01/04 07:59:10;;;;;;;1.10;0.38;;;5.60;99.90;;;;;;5093400;28;20426;-72
2023/01/04 08:01:38;;;;;;;0.38;0.38;;;5.60;99.90;;;;;;5079716;28;20450;-72
2023/01/04 08:04:06;;;;;;;0.70;0.50;;;5.70;99.90;;;;;;5084368;28;20465;-72
2023/01/04 08:06:34;;;;;;;0.60;0.60;;;5.70;99.90;;;;;;5075973;28;21950;-73
2023/01/04 08:09:02;;;;;;;1.38;0.55;;;5.70;99.90;;;;;;5089682;28;20444;-72
2023/01/04 08:11:29;;;;;;;0.35;0.35;;;5.80;99.90;;;;;;5086108;28;20439;-73
2023/01/04 08:13:56;;;;;;;0.70;0.20;;;5.80;99.90;;;;;;5084023;28;20442;-73
2023/01/04 08:16:30;;;;;;;0.38;0.38;;;5.80;99.90;;;;;;5083985;28;20801;-75
2023/01/04 08:19:18;;;;;;;0.63;0.47;;;5.80;99.90;;;;;;5083645;28;20436;-73
2023/01/04 08:21:45;;;;;;;0.70;0.70;;;5.80;99.90;;;;;;5079110;28;20435;-73
2023/01/04 08:24:15;;;;;;;0.50;0.50;;;5.90;99.90;;;;;;5078223;28;20450;-73
2023/01/04 08:26:42;;;;;;;0.90;0.70;;;5.90;99.90;;;;;;5080828;28;20993;-73
2023/01/04 08:29:10;;;;;;;0.50;0.50;;;5.90;99.90;;;;;;5087331;28;20433;-73
2023/01/04 08:31:37;;;;;;;0.38;0.38;;;6.00;99.90;;;;;;5082022;28;20442;-73
2023/01/04 08:34:07;;;;;;;1.00;0.47;;;6.00;99.90;;;;;;5093166;28;20919;-73
2023/01/04 08:36:43;;;;;;;0.90;0.45;;;6.00;99.90;;;;;;5086747;28;20524;-74
2023/01/04 08:39:10;;;;;;;0.43;0.32;;;6.10;99.90;;;;;;5083879;28;20574;-74
2023/01/04 08:41:49;;;;;;;0.20;0.20;;;6.10;99.90;;;;;;5095613;28;20453;-74
2023/01/04 08:44:36;;;;;;;0.17;0.17;;;6.20;99.90;;;;;;5080612;28;20979;-73
2023/01/04 08:47:03;;;;;;;0.50;0.50;;;6.30;99.90;;;;;;5089668;28;20414;-73
2023/01/04 08:49:29;;;;;;;0.25;0.25;;;6.30;99.90;;;;;;5084020;28;20430;-75
2023/01/04 08:51:56;;;;;;;0.10;0.10;;;6.30;99.90;;;;;;5076797;28;20427;-74
2023/01/04 08:54:23;;;;;;;0.40;0.40;;;6.40;99.90;;;;;;5089146;28;21320;-74
2023/01/04 08:56:50;;;;;;;0.20;0.20;;;6.40;99.90;;;;;;5090336;28;20442;-74
2023/01/04 08:59:17;;;;;;;0.30;0.30;;;6.40;99.90;;;;;;5088862;28;20428;-74
2023/01/04 09:01:44;;;;;;;0.93;0.43;;;6.50;99.90;;;;;;5077905;28;21091;-74
2023/01/04 09:04:11;;;;;;;0.40;0.40;;;6.50;99.90;;;;;;5077914;28;20422;-73
2023/01/04 09:06:38;;;;;;;0.20;0.20;;;6.50;99.90;;;;;;5080351;28;20512;-74
2023/01/04 09:09:05;;;;;;;0.30;0.30;;;6.60;99.90;;;;;;5076422;28;20443;-73
2023/01/04 09:11:32;;;;;;;0.70;0.50;;;6.60;99.90;;;;;;5074385;28;20437;-74
2023/01/04 09:14:00;;;;;;;0.20;0.20;;;6.60;99.90;;;;;;5072023;28;20438;-74
2023/01/04 09:16:39;;;;;;;0.40;0.20;;;6.70;99.90;;;;;;5086038;28;20469;-75
2023/01/04 09:19:06;;;;;;;0.20;0.20;;;6.60;99.90;;;;;;5079980;28;20419;-74
2023/01/04 09:21:33;;;;;;;0.47;0.40;;;6.70;99.90;;;;;;5088793;28;21120;-74
2023/01/04 09:24:00;;;;;;;0.15;0.15;;;6.70;99.90;;;;;;5076527;28;20427;-74
2023/01/04 09:26:27;;;;;;;0.25;0.25;;;6.70;99.90;;;;;;5085855;28;20431;-74
2023/01/04 09:28:55;;;;;;;0.40;0.30;;;6.80;99.90;;;;;;5080465;28;20460;-74
2023/01/04 09:31:24;;;;;;;0.40;0.40;;;6.80;99.90;;;;;;5087412;28;20429;-74
2023/01/04 09:33:52;;;;;;;0.20;0.20;;;6.90;99.90;;;;;;5082737;28;20445;-74
2023/01/04 09:36:43;;;;;;;0.20;0.20;;;6.90;99.90;;;;;;5082194;28;20424;-74
2023/01/04 09:39:11;;;;;;;0.20;0.20;;;7.00;99.90;;;;;;5092554;28;20511;-75
2023/01/04 09:41:54;;;;;;;1.80;0.50;;;6.90;99.90;;;;;;5091586;28;20446;-74
2023/01/04 09:44:44;;;;;;;0.15;0.15;;;6.90;99.90;;;;;;5085362;28;20916;-75
2023/01/04 09:47:50;;;;;;;0.17;0.17;;;6.90;99.90;;;;;;5088145;28;20476;-74
2023/01/04 09:50:49;;;;;;;0.88;0.43;;;6.90;99.90;;;;;;5087735;28;20553;-74
2023/01/04 09:54:04;;;;;;;0.32;0.32;;;6.80;99.90;;;;;;5037189;28;20479;-74
2023/01/04 09:56:34;;;;;;;0.30;0.30;;;6.80;99.90;;;;;;4971568;28;20862;-75
2023/01/04 09:59:05;;;;;;;0.35;0.30;;;6.90;99.90;;;;;;4952572;28;20443;-74
2023/01/04 10:01:58;;;;;;;0.40;0.40;;;6.90;99.90;;;;;;4965204;28;20597;-75
2023/01/04 10:04:46;;;;;;;0.90;0.50;;;7.00;99.90;;;;;;4978976;28;20522;-74
2023/01/04 10:07:30;;;;;;;0.30;0.30;;;7.00;99.90;;;;;;4966135;28;20447;-75
2023/01/04 10:09:58;;;;;;;0.30;0.30;;;7.10;99.90;;;;;;4969299;28;20440;-75
2023/01/04 10:12:44;;;;;;;0.43;0.43;;;7.10;99.90;;;;;;4973354;28;20443;-77
2023/01/04 10:15:37;;;;;;;0.28;0.28;;;7.10;99.90;;;;;;4967010;28;20439;-75
2023/01/04 10:18:27;;;;;;;2.03;0.57;;;7.20;99.90;;;;;;4973691;28;20474;-75
2023/01/04 10:21:33;;;;;;;0.30;0.30;;;7.20;99.90;;;;;;4965968;28;20423;-75
2023/01/04 10:24:31;;;;;;;0.20;0.20;;;7.30;99.90;;;;;;4959676;28;20537;-75
2023/01/04 10:27:13;;;;;;;0.30;0.30;;;7.30;99.90;;;;;;4967732;28;20439;-75
2023/01/04 10:29:53;;;;;;;0.63;0.63;;;7.30;99.90;;;;;;4989394;28;20439;-75
2023/01/04 10:32:42;;;;;;;0.90;0.20;;;7.30;99.90;;;;;;5078077;28;20773;-75
2023/01/04 10:35:20;;;;;;;1.00;0.17;;;7.40;99.90;;;;;;5072230;28;20431;-75
2023/01/04 10:38:19;;;;;;;1.10;0.20;;;7.40;99.90;;;;;;5071871;28;20429;-75
2023/01/04 10:40:47;;;;;;;1.05;0.80;;;7.40;99.90;;;;;;5078743;28;20423;-75
2023/01/04 10:43:38;;;;;;;0.50;0.32;;;7.40;99.90;;;;;;5077595;28;20932;-75
2023/01/04 10:46:40;;;;;;;5.10;0.50;;;7.40;99.90;;;;;;5081583;28;20426;-75
2023/01/04 10:49:41;;;;;;;0.25;0.25;;;7.40;99.90;;;;;;5082043;28;20436;-75
2023/01/04 10:52:32;;;;;;;0.20;0.20;;;7.40;99.90;;;;;;5038578;28;20472;-75
2023/01/04 10:55:20;;;;;;;0.75;0.22;;;7.50;99.90;;;;;;5059521;28;20431;-77
2023/01/04 10:57:58;;;;;;;0.10;0.10;;;7.50;99.90;;;;;;5043278;28;20432;-74
2023/01/04 11:00:29;;;;;;;0.10;0.10;;;7.60;99.90;;;;;;5058177;28;20429;-75
2023/01/04 11:02:59;;;;;;;1.10;0.50;;;7.60;99.90;;;;;;5052791;28;20421;-75
2023/01/04 11:05:49;;;;;;;0.20;0.20;;;7.80;99.90;;;;;;5057579;28;20470;-77
2023/01/04 11:08:21;;;;;;;0.30;0.30;;;7.80;99.90;;;;;;5057409;28;20444;-76
2023/01/04 11:10:51;;;;;;;0.20;0.20;;;7.90;99.90;;;;;;5054558;28;20431;-76
2023/01/04 11:13:18;;;;;;;0.20;0.20;;;7.90;99.90;;;;;;5059048;28;20490;-77
2023/01/04 11:15:47;;;;;;;0.10;0.10;;;7.90;99.90;;;;;;5057160;28;20553;-76
2023/01/04 11:18:14;;;;;;;1.17;0.20;;;7.90;99.90;;;;;;5038831;28;20431;-76
2023/01/04 11:20:43;;;;;;;0.20;0.20;;;7.90;99.90;;;;;;5054196;28;20431;-76
2023/01/04 11:23:15;;;;;;;0.40;0.40;;;8.00;99.90;;;;;;5057680;28;20512;-76
2023/01/04 11:26:31;;;;;;;0.20;0.20;;;8.10;99.90;;;;;;5057458;28;20419;-74
2023/01/04 11:29:12;;;;;;;0.50;0.50;;;8.10;99.90;;;;;;5083758;28;20932;-75
2023/01/04 11:32:00;;;;;;;0.20;0.20;;;8.20;99.90;;;;;;5088838;28;20427;-76
2023/01/04 11:34:55;;;;;;;0.20;0.20;;;8.30;99.90;;;;;;5075080;28;21408;-75
2023/01/04 11:37:36;;;;;;;0.17;0.17;;;8.50;99.90;;;;;;5078539;28;21126;-77
2023/01/04 11:40:25;;;;;;;0.10;0.10;;;8.70;99.90;;;;;;5081073;28;20503;-75
2023/01/04 11:43:17;;;;;;;0.10;0.10;;;8.80;99.90;;;;;;5094113;28;20791;-76
2023/01/04 11:46:19;;;;;;;0.22;0.22;;;8.80;99.90;;;;;;5072177;28;20794;-77
2023/01/04 11:48:47;;;;;;;0.32;0.32;;;8.90;99.90;;;;;;5089784;28;20461;-75
2023/01/04 11:51:24;;;;;;;0.20;0.20;;;9.00;99.90;;;;;;5079548;28;20438;-77
2023/01/04 11:54:02;;;;;;;0.10;0.10;;;9.10;99.90;;;;;;5073596;28;20431;-76
2023/01/04 11:56:36;;;;;;;0.20;0.20;;;9.10;99.90;;;;;;5089422;28;20434;-75
2023/01/04 11:59:05;;;;;;;0.10;0.10;;;9.10;99.90;;;;;;5084470;28;22072;-75
2023/01/04 12:01:38;;;;;;;0.40;0.40;;;9.20;99.90;;;;;;5091826;28;20438;-75
2023/01/04 12:04:30;;;;;;;0.20;0.20;;;9.20;99.90;;;;;;5083372;28;20496;-76
2023/01/04 12:07:27;;;;;;;0.20;0.20;;;9.30;99.90;;;;;;5083666;28;20473;-76
2023/01/04 12:09:54;;;;;;;0.30;0.30;;;9.20;99.90;;;;;;5086949;28;21140;-75
2023/01/04 12:12:27;;;;;;;0.38;0.38;;;9.20;99.90;;;;;;5077015;28;20432;-75
2023/01/04 12:15:01;;;;;;;0.20;0.20;;;9.20;99.90;;;;;;5080224;28;20461;-75
2023/01/04 12:17:41;;;;;;;0.00;0.00;;;9.20;99.90;;;;;;5092200;28;20426;-75
2023/01/04 12:20:14;;;;;;;0.10;0.10;;;9.20;99.90;;;;;;5082963;28;20483;-75
2023/01/04 12:22:49;;;;;;;0.20;0.20;;;9.10;99.90;;;;;;5073942;28;20510;-75
2023/01/04 12:25:52;;;;;;;0.70;0.30;;;9.20;99.90;;;;;;5074241;28;20920;-75
2023/01/04 12:28:34;;;;;;;0.20;0.20;;;9.10;99.90;;;;;;5074560;28;20942;-75
2023/01/04 12:31:19;;;;;;;0.15;0.15;;;9.10;99.90;;;;;;5083209;28;20424;-75
2023/01/04 12:33:50;;;;;;;0.10;0.10;;;9.00;99.90;;;;;;5078213;28;20504;-75
2023/01/04 12:36:37;;;;;;;0.10;0.10;;;9.10;99.90;;;;;;5082428;28;20524;-77
2023/01/04 12:39:14;;;;;;;0.57;0.35;;;9.00;99.90;;;;;;5086877;28;20458;-74
2023/01/04 12:41:42;;;;;;;0.10;0.10;;;9.00;99.90;;;;;;5072944;28;20425;-76
2023/01/04 12:44:38;;;;;;;0.10;0.10;;;9.00;99.90;;;;;;5088457;28;20420;-76
2023/01/04 12:50:23;;;;;;;0.30;0.10;;;9.00;99.90;;;;;;5078023;28;20479;-79
2023/01/04 12:52:51;;;;;;;0.28;0.28;;;9.00;99.90;;;;;;5075729;28;20513;-75
2023/01/04 12:55:42;;;;;;;0.15;0.15;;;9.00;99.90;;;;;;5082503;28;20418;-76
2023/01/04 12:58:31;;;;;;;0.57;0.32;;;9.00;99.90;;;;;;5075845;28;20431;-76
2023/01/04 13:01:27;;;;;;;0.30;0.30;;;8.90;99.90;;;;;;5078873;28;20809;-74
2023/01/04 13:03:58;;;;;;;0.20;0.20;;;8.90;99.90;;;;;;5087976;28;20422;-74
2023/01/04 13:06:41;;;;;;;0.20;0.20;;;8.90;99.90;;;;;;5074595;28;20560;-75
2023/01/04 13:09:19;;;;;;;0.40;0.40;;;8.90;99.90;;;;;;5088880;28;20503;-77
2023/01/04 13:11:53;;;;;;;0.47;0.47;;;9.00;99.90;;;;;;5073158;28;20435;-75
2023/01/04 13:14:28;;;;;;;0.40;0.40;;;9.00;99.90;;;;;;5076670;28;20434;-76
2023/01/04 13:17:04;;;;;;;0.10;0.10;;;9.00;99.90;;;;;;5081667;28;20433;-76
2023/01/04 13:19:31;;;;;;;0.10;0.10;;;9.10;99.90;;;;;;5077137;28;20436;-75
2023/01/04 13:21:58;;;;;;;0.28;0.28;;;9.10;99.90;;;;;;5077825;28;20432;-76
2023/01/04 13:24:33;;;;;;;0.10;0.10;;;9.10;99.90;;;;;;5071708;28;20424;-76
2023/01/04 13:27:20;;;;;;;0.20;0.20;;;9.10;99.90;;;;;;5088677;28;20491;-75
2023/01/04 13:29:48;;;;;;;0.20;0.20;;;9.10;99.90;;;;;;5081819;28;20424;-77
2023/01/04 13:32:30;;;;;;;0.30;0.30;;;9.10;99.90;;;;;;5086422;28;20421;-75
2023/01/04 13:35:13;;;;;;;0.30;0.30;;;9.20;99.90;;;;;;5080561;28;20433;-76
2023/01/04 13:37:45;;;;;;;0.20;0.20;;;9.20;99.90;;;;;;5080600;28;20434;-76
2023/01/04 13:40:27;;;;;;;0.20;0.20;;;9.10;99.90;;;;;;5077839;28;20421;-76
2023/01/04 13:43:14;;;;;;;0.10;0.10;;;9.10;99.90;;;;;;5078866;28;20440;-76
2023/01/04 13:46:20;;;;;;;0.40;0.40;;;9.10;99.90;;;;;;5079762;28;20930;-76
2023/01/04 13:48:50;;;;;;;0.30;0.30;;;9.00;99.90;;;;;;5082693;28;20460;-76
2023/01/04 13:51:33;;;;;;;0.20;0.20;;;9.00;99.90;;;;;;5086148;28;20429;-76
2023/01/04 13:54:06;;;;;;;0.40;0.40;;;8.90;99.90;;;;;;5080852;28;20441;-76
2023/01/04 13:56:33;;;;;;;0.30;0.30;;;8.90;99.90;;;;;;5080558;28;20433;-76
2023/01/04 13:59:00;;;;;;;0.10;0.10;;;8.90;99.90;;;;;;5082462;28;20494;-75
2023/01/04 14:01:31;;;;;;;0.10;0.10;;;8.90;99.90;;;;;;5079047;28;20425;-76
2023/01/04 14:04:01;;;;;;;0.30;0.30;;;8.90;99.90;;;;;;5073403;28;20465;-76
2023/01/04 14:06:39;;;;;;;0.40;0.30;;;9.00;99.90;;;;;;5073933;28;20506;-75
2023/01/04 14:09:09;;;;;;;0.10;0.10;;;9.00;99.90;;;;;;5078809;28;20500;-76
2023/01/04 14:14:59;;;;;;;0.15;0.15;;;9.10;99.90;;;;;;5088149;28;20466;-76
2023/01/04 14:17:26;;;;;;;0.20;0.20;;;9.10;99.90;;;;;;5080114;28;20479;-76
2023/01/04 14:20:11;;;;;;;0.35;0.35;;;9.10;99.90;;;;;;5074419;28;20800;-75
2023/01/04 14:22:58;;;;;;;0.20;0.20;;;9.10;99.90;;;;;;5076461;28;20814;-76
2023/01/04 14:25:43;;;;;;;0.30;0.30;;;9.10;99.90;;;;;;5073700;28;20427;-76
2023/01/04 14:28:27;;;;;;;0.35;0.35;;;9.10;99.90;;;;;;5070218;28;20529;-75
2023/01/04 14:31:00;;;;;;;0.10;0.10;;;9.10;99.90;;;;;;5084950;28;20530;-75